sensor_id;sensor_type;location;lat;lon;timestamp;pressure;altitude;pressure_sealevel;temperature;humidity
49377;BME280;35253;34.688;33.040;2023-04-05T00:01:41;100806.00;;;16.31;100.00
49377;BME280;35253;34.688;33.040;2023-04-05T00:04:07;100812.59;;;16.16;100.00
49377;BME280;35253;34.688;33.040;2023-04-05T00:06:33;100810.41;;;16.32;100.00
49377;BME280;35253;34.688;33.040;2023-04-05T00:09:01;100800.09;;;16.48;100.00
49377;BME280;35253;34.688;33.040;2023-04-05T00:11:30;100803.53;;;16.61;100.00
49377;BME280;35253;34.688;33.040;2023-04-05T00:13:57;100806.94;;;16.63;100.00
49377;BME280;35253;34.688;33.040;2023-04-05T00:16:23;100801.06;;;16.47;100.00
49377;BME280;35253;34.688;33.040;2023-04-05T00:18:49;100805.84;;;16.66;100.00
49377;BME280;35253;34.688;33.040;2023-04-05T00:21:22;100802.19;;;16.45;100.00
49377;BME280;35253;34.688;33.040;2023-04-05T00:23:48;100812.59;;;16.49;100.00
49377;BME280;35253;34.688;33.040;2023-04-05T00:26:15;100806.72;;;16.44;100.00
49377;BME280;35253;34.688;33.040;2023-04-05T00:28:41;100810.88;;;16.37;100.00
49377;BME280;35253;34.688;33.040;2023-04-05T00:31:07;100813.31;;;16.40;100.00
49377;BME280;35253;34.688;33.040;2023-04-05T00:33:33;100809.63;;;16.52;100.00
49377;BME280;35253;34.688;33.040;2023-04-05T00:36:11;100810.63;;;16.62;100.00
49377;BME280;35253;34.688;33.040;2023-04-05T00:38:37;100814.63;;;16.79;100.00
49377;BME280;35253;34.688;33.040;2023-04-05T00:41:03;100821.47;;;16.72;100.00
49377;BME280;35253;34.688;33.040;2023-04-05T00:43:29;100821.56;;;16.82;100.00
49377;BME280;35253;34.688;33.040;2023-04-05T00:45:55;100812.78;;;16.80;100.00
49377;BME280;35253;34.688;33.040;2023-04-05T00:48:22;100818.66;;;16.74;100.00
49377;BME280;35253;34.688;33.040;2023-04-05T00:50:49;100815.00;;;16.75;100.00
49377;BME280;35253;34.688;33.040;2023-04-05T00:53:20;100818.38;;;16.88;100.00
49377;BME280;35253;34.688;33.040;2023-04-05T00:55:47;100813.97;;;16.87;100.00
49377;BME280;35253;34.688;33.040;2023-04-05T00:58:14;100811.66;;;16.82;100.00
49377;BME280;35253;34.688;33.040;2023-04-05T01:00:51;100803.31;;;16.85;100.00
49377;BME280;35253;34.688;33.040;2023-04-05T01:03:22;100800.28;;;16.79;100.00
49377;BME280;35253;34.688;33.040;2023-04-05T01:05:58;100802.19;;;16.67;100.00
49377;BME280;35253;34.688;33.040;2023-04-05T01:08:39;100802.50;;;16.74;100.00
49377;BME280;35253;34.688;33.040;2023-04-05T01:11:09;100801.69;;;16.94;100.00
49377;BME280;35253;34.688;33.040;2023-04-05T01:13:36;100802.44;;;16.96;100.00
49377;BME280;35253;34.688;33.040;2023-04-05T01:16:02;100798.22;;;17.03;100.00
49377;BME280;35253;34.688;33.040;2023-04-05T01:18:28;100805.00;;;16.97;100.00
49377;BME280;35253;34.688;33.040;2023-04-05T01:24:22;100816.66;;;16.87;100.00
49377;BME280;35253;34.688;33.040;2023-04-05T01:32:03;100816.88;;;16.95;100.00
49377;BME280;35253;34.688;33.040;2023-04-05T01:34:39;100818.00;;;16.92;100.00
49377;BME280;35253;34.688;33.040;2023-04-05T01:37:12;100830.94;;;16.98;100.00
49377;BME280;35253;34.688;33.040;2023-04-05T01:39:40;100824.25;;;16.93;100.00
49377;BME280;35253;34.688;33.040;2023-04-05T01:42:06;100825.25;;;16.81;100.00
49377;BME280;35253;34.688;33.040;2023-04-05T01:44:33;100838.47;;;16.73;100.00
49377;BME280;35253;34.688;33.040;2023-04-05T01:46:58;100839.50;;;16.60;100.00
49377;BME280;35253;34.688;33.040;2023-04-05T01:49:24;100834.97;;;16.61;100.00
49377;BME280;35253;34.688;33.040;2023-04-05T01:51:50;100831.91;;;16.65;100.00
49377;BME280;35253;34.688;33.040;2023-04-05T01:54:16;100838.47;;;16.73;100.00
49377;BME280;35253;34.688;33.040;2023-04-05T01:56:41;100844.13;;;16.70;100.00
49377;BME280;35253;34.688;33.040;2023-04-05T01:59:07;100840.19;;;16.74;100.00
49377;BME280;35253;34.688;33.040;2023-04-05T02:01:33;100838.09;;;16.88;100.00
49377;BME280;35253;34.688;33.040;2023-04-05T02:03:58;100837.72;;;16.82;100.00
49377;BME280;35253;34.688;33.040;2023-04-05T02:06:24;100832.13;;;16.74;100.00
49377;BME280;35253;34.688;33.040;2023-04-05T02:08:51;100838.25;;;16.64;100.00
49377;BME280;35253;34.688;33.040;2023-04-05T02:11:16;100839.38;;;16.62;100.00
49377;BME280;35253;34.688;33.040;2023-04-05T02:13:42;100846.34;;;16.64;100.00
49377;BME280;35253;34.688;33.040;2023-04-05T02:16:08;100839.09;;;16.76;100.00
49377;BME280;35253;34.688;33.040;2023-04-05T02:18:33;100836.84;;;16.92;100.00
49377;BME280;35253;34.688;33.040;2023-04-05T02:21:07;100834.16;;;16.92;100.00
49377;BME280;35253;34.688;33.040;2023-04-05T02:23:36;100847.03;;;16.78;100.00
49377;BME280;35253;34.688;33.040;2023-04-05T02:26:02;100843.38;;;16.79;100.00
49377;BME280;35253;34.688;33.040;2023-04-05T02:28:28;100846.81;;;16.70;100.00
49377;BME280;35253;34.688;33.040;2023-04-05T02:30:54;100859.28;;;16.82;100.00
49377;BME280;35253;34.688;33.040;2023-04-05T02:33:20;100851.69;;;16.87;100.00
49377;BME280;35253;34.688;33.040;2023-04-05T02:35:52;100852.63;;;16.97;100.00
49377;BME280;35253;34.688;33.040;2023-04-05T02:38:18;100854.59;;;16.95;100.00
49377;BME280;35253;34.688;33.040;2023-04-05T02:40:50;100851.59;;;17.09;100.00
49377;BME280;35253;34.688;33.040;2023-04-05T02:43:15;100855.03;;;17.11;100.00
49377;BME280;35253;34.688;33.040;2023-04-05T02:45:41;100863.41;;;16.97;100.00
49377;BME280;35253;34.688;33.040;2023-04-05T02:48:07;100857.22;;;16.74;100.00
49377;BME280;35253;34.688;33.040;2023-04-05T02:50:32;100862.50;;;16.64;100.00
49377;BME280;35253;34.688;33.040;2023-04-05T02:52:58;100853.94;;;16.59;100.00
49377;BME280;35253;34.688;33.040;2023-04-05T02:55:24;100866.41;;;16.60;100.00
49377;BME280;35253;34.688;33.040;2023-04-05T02:57:50;100867.63;;;16.67;100.00
49377;BME280;35253;34.688;33.040;2023-04-05T03:00:16;100864.47;;;16.62;100.00
49377;BME280;35253;34.688;33.040;2023-04-05T03:02:42;100859.53;;;16.56;100.00
49377;BME280;35253;34.688;33.040;2023-04-05T03:05:07;100865.94;;;16.66;100.00
49377;BME280;35253;34.688;33.040;2023-04-05T03:07:34;100863.00;;;16.58;100.00
49377;BME280;35253;34.688;33.040;2023-04-05T03:09:59;100868.47;;;16.68;100.00
49377;BME280;35253;34.688;33.040;2023-04-05T03:12:25;100861.47;;;16.77;100.00
49377;BME280;35253;34.688;33.040;2023-04-05T03:14:51;100860.28;;;16.70;100.00
49377;BME280;35253;34.688;33.040;2023-04-05T03:17:18;100867.63;;;16.67;100.00
49377;BME280;35253;34.688;33.040;2023-04-05T03:19:44;100864.47;;;16.62;100.00
49377;BME280;35253;34.688;33.040;2023-04-05T03:22:10;100866.16;;;16.63;100.00
49377;BME280;35253;34.688;33.040;2023-04-05T03:24:35;100872.50;;;16.74;100.00
49377;BME280;35253;34.688;33.040;2023-04-05T03:27:01;100878.16;;;16.71;100.00
49377;BME280;35253;34.688;33.040;2023-04-05T03:29:28;100866.63;;;16.80;100.00
49377;BME280;35253;34.688;33.040;2023-04-05T03:31:56;100866.16;;;16.75;100.00
49377;BME280;35253;34.688;33.040;2023-04-05T03:34:21;100881.44;;;16.74;100.00
49377;BME280;35253;34.688;33.040;2023-04-05T03:36:54;100882.56;;;16.72;100.00
49377;BME280;35253;34.688;33.040;2023-04-05T03:39:20;100884.41;;;16.71;100.00
49377;BME280;35253;34.688;33.040;2023-04-05T03:41:46;100885.34;;;16.81;100.00
49377;BME280;35253;34.688;33.040;2023-04-05T03:44:11;100888.91;;;16.82;100.00
49377;BME280;35253;34.688;33.040;2023-04-05T03:46:37;100893.03;;;16.86;100.00
49377;BME280;35253;34.688;33.040;2023-04-05T03:49:03;100890.63;;;16.83;100.00
49377;BME280;35253;34.688;33.040;2023-04-05T03:51:29;100894.16;;;16.83;100.00
49377;BME280;35253;34.688;33.040;2023-04-05T03:53:55;100889.97;;;16.90;100.00
49377;BME280;35253;34.688;33.040;2023-04-05T03:56:21;100891.09;;;16.77;100.00
49377;BME280;35253;34.688;33.040;2023-04-05T03:58:47;100893.19;;;16.73;100.00
49377;BME280;35253;34.688;33.040;2023-04-05T04:01:14;100891.81;;;16.90;100.00
49377;BME280;35253;34.688;33.040;2023-04-05T04:03:40;100896.97;;;16.82;100.00
49377;BME280;35253;34.688;33.040;2023-04-05T04:06:07;100899.19;;;16.77;100.00
49377;BME280;35253;34.688;33.040;2023-04-05T04:08:32;100902.50;;;16.69;100.00
49377;BME280;35253;34.688;33.040;2023-04-05T04:10:58;100907.03;;;16.80;100.00
49377;BME280;35253;34.688;33.040;2023-04-05T04:13:24;100914.09;;;16.81;100.00
49377;BME280;35253;34.688;33.040;2023-04-05T04:15:50;100910.81;;;16.77;100.00
49377;BME280;35253;34.688;33.040;2023-04-05T04:18:16;100903.81;;;16.86;100.00
49377;BME280;35253;34.688;33.040;2023-04-05T04:20:42;100909.06;;;16.98;100.00
49377;BME280;35253;34.688;33.040;2023-04-05T04:23:07;100921.16;;;17.15;100.00
49377;BME280;35253;34.688;33.040;2023-04-05T04:25:37;100915.47;;;17.29;100.00
49377;BME280;35253;34.688;33.040;2023-04-05T04:28:06;100919.59;;;17.44;100.00
49377;BME280;35253;34.688;33.040;2023-04-05T04:30:32;100929.13;;;17.48;100.00
49377;BME280;35253;34.688;33.040;2023-04-05T04:33:02;100923.25;;;17.43;100.00
49377;BME280;35253;34.688;33.040;2023-04-05T04:35:32;100930.47;;;17.11;100.00
49377;BME280;35253;34.688;33.040;2023-04-05T04:38:03;100933.66;;;16.94;100.00
49377;BME280;35253;34.688;33.040;2023-04-05T04:40:37;100933.44;;;16.97;100.00
49377;BME280;35253;34.688;33.040;2023-04-05T04:43:07;100925.63;;;16.83;100.00
49377;BME280;35253;34.688;33.040;2023-04-05T04:45:34;100931.25;;;16.80;100.00
49377;BME280;35253;34.688;33.040;2023-04-05T04:48:03;100927.97;;;16.65;100.00
49377;BME280;35253;34.688;33.040;2023-04-05T04:50:33;100922.66;;;16.86;100.00
49377;BME280;35253;34.688;33.040;2023-04-05T04:52:59;100927.31;;;17.06;100.00
49377;BME280;35253;34.688;33.040;2023-04-05T04:55:29;100923.53;;;17.29;100.00
49377;BME280;35253;34.688;33.040;2023-04-05T04:57:55;100917.59;;;17.46;100.00
49377;BME280;35253;34.688;33.040;2023-04-05T05:00:22;100909.59;;;17.56;100.00
49377;BME280;35253;34.688;33.040;2023-04-05T05:02:49;100912.44;;;17.54;100.00
49377;BME280;35253;34.688;33.040;2023-04-05T05:05:16;100918.41;;;17.90;100.00
49377;BME280;35253;34.688;33.040;2023-04-05T05:07:42;100916.63;;;17.47;100.00
49377;BME280;35253;34.688;33.040;2023-04-05T05:10:11;100917.28;;;17.72;100.00
49377;BME280;35253;34.688;33.040;2023-04-05T05:12:40;100918.81;;;17.85;100.00
49377;BME280;35253;34.688;33.040;2023-04-05T05:15:07;100914.56;;;18.13;100.00
49377;BME280;35253;34.688;33.040;2023-04-05T05:17:33;100911.66;;;18.26;100.00
49377;BME280;35253;34.688;33.040;2023-04-05T05:20:00;100915.75;;;18.20;100.00
49377;BME280;35253;34.688;33.040;2023-04-05T05:22:27;100919.44;;;18.19;100.00
49377;BME280;35253;34.688;33.040;2023-04-05T05:24:52;100925.38;;;18.13;100.00
49377;BME280;35253;34.688;33.040;2023-04-05T05:27:18;100921.75;;;18.24;100.00
49377;BME280;35253;34.688;33.040;2023-04-05T05:29:45;100930.75;;;18.13;100.00
49377;BME280;35253;34.688;33.040;2023-04-05T05:32:11;100931.38;;;17.96;100.00
49377;BME280;35253;34.688;33.040;2023-04-05T05:34:40;100945.28;;;18.12;100.00
49377;BME280;35253;34.688;33.040;2023-04-05T05:37:09;100936.34;;;18.21;100.00
49377;BME280;35253;34.688;33.040;2023-04-05T05:39:35;100940.03;;;18.41;100.00
49377;BME280;35253;34.688;33.040;2023-04-05T05:42:01;100938.63;;;18.16;100.00
49377;BME280;35253;34.688;33.040;2023-04-05T05:44:29;100940.13;;;18.09;100.00
49377;BME280;35253;34.688;33.040;2023-04-05T05:46:55;100937.22;;;18.01;100.00
49377;BME280;35253;34.688;33.040;2023-04-05T05:49:21;100938.78;;;18.03;100.00
49377;BME280;35253;34.688;33.040;2023-04-05T05:51:48;100935.63;;;18.19;100.00
49377;BME280;35253;34.688;33.040;2023-04-05T05:54:15;100937.44;;;18.39;100.00
49377;BME280;35253;34.688;33.040;2023-04-05T05:56:41;100936.88;;;18.36;100.00
49377;BME280;35253;34.688;33.040;2023-04-05T05:59:06;100930.06;;;18.41;100.00
49377;BME280;35253;34.688;33.040;2023-04-05T06:01:32;100954.72;;;18.27;100.00
49377;BME280;35253;34.688;33.040;2023-04-05T06:04:05;100940.97;;;18.10;100.00
49377;BME280;35253;34.688;33.040;2023-04-05T06:06:31;100941.63;;;18.23;100.00
49377;BME280;35253;34.688;33.040;2023-04-05T06:08:59;100945.34;;;18.31;100.00
49377;BME280;35253;34.688;33.040;2023-04-05T06:11:25;100952.91;;;18.07;100.00
49377;BME280;35253;34.688;33.040;2023-04-05T06:13:51;100950.19;;;18.07;100.00
49377;BME280;35253;34.688;33.040;2023-04-05T06:16:19;100943.78;;;18.08;100.00
49377;BME280;35253;34.688;33.040;2023-04-05T06:18:45;100945.91;;;18.25;100.00
49377;BME280;35253;34.688;33.040;2023-04-05T06:21:12;100965.84;;;18.34;100.00
49377;BME280;35253;34.688;33.040;2023-04-05T06:23:37;100964.91;;;18.44;100.00
49377;BME280;35253;34.688;33.040;2023-04-05T06:26:05;100954.31;;;18.53;100.00
49377;BME280;35253;34.688;33.040;2023-04-05T06:28:31;100962.75;;;18.38;100.00
49377;BME280;35253;34.688;33.040;2023-04-05T06:30:57;100967.41;;;18.36;100.00
49377;BME280;35253;34.688;33.040;2023-04-05T06:33:24;100969.72;;;18.62;100.00
49377;BME280;35253;34.688;33.040;2023-04-05T06:35:50;100973.22;;;18.83;100.00
49377;BME280;35253;34.688;33.040;2023-04-05T06:38:16;100974.28;;;18.71;100.00
49377;BME280;35253;34.688;33.040;2023-04-05T06:40:42;100966.59;;;18.66;100.00
49377;BME280;35253;34.688;33.040;2023-04-05T06:43:08;100968.72;;;18.63;100.00
49377;BME280;35253;34.688;33.040;2023-04-05T06:45:37;100966.13;;;18.82;100.00
49377;BME280;35253;34.688;33.040;2023-04-05T06:48:03;100964.03;;;18.95;100.00
49377;BME280;35253;34.688;33.040;2023-04-05T06:50:28;100965.00;;;18.94;100.00
49377;BME280;35253;34.688;33.040;2023-04-05T06:52:54;100980.13;;;19.06;100.00
49377;BME280;35253;34.688;33.040;2023-04-05T06:55:20;100971.03;;;19.07;100.00
49377;BME280;35253;34.688;33.040;2023-04-05T06:57:46;100975.69;;;19.05;100.00
49377;BME280;35253;34.688;33.040;2023-04-05T07:00:12;100974.38;;;18.90;100.00
49377;BME280;35253;34.688;33.040;2023-04-05T07:02:40;100976.63;;;18.85;100.00
49377;BME280;35253;34.688;33.040;2023-04-05T07:05:06;100963.13;;;18.85;100.00
49377;BME280;35253;34.688;33.040;2023-04-05T07:07:37;100972.97;;;18.86;100.00
49377;BME280;35253;34.688;33.040;2023-04-05T07:10:03;100966.72;;;18.95;100.00
49377;BME280;35253;34.688;33.040;2023-04-05T07:12:29;100965.06;;;19.04;100.00
49377;BME280;35253;34.688;33.040;2023-04-05T07:14:55;100973.06;;;19.24;100.00
49377;BME280;35253;34.688;33.040;2023-04-05T07:17:20;100963.66;;;19.19;100.00
49377;BME280;35253;34.688;33.040;2023-04-05T07:19:46;100975.63;;;19.35;100.00
49377;BME280;35253;34.688;33.040;2023-04-05T07:22:12;100971.06;;;19.17;100.00
49377;BME280;35253;34.688;33.040;2023-04-05T07:24:38;100975.88;;;19.13;100.00
49377;BME280;35253;34.688;33.040;2023-04-05T07:27:03;100967.44;;;19.47;100.00
49377;BME280;35253;34.688;33.040;2023-04-05T07:29:29;100983.47;;;19.39;100.00
49377;BME280;35253;34.688;33.040;2023-04-05T07:31:54;100981.00;;;19.16;100.00
49377;BME280;35253;34.688;33.040;2023-04-05T07:34:20;100992.13;;;19.23;100.00
49377;BME280;35253;34.688;33.040;2023-04-05T07:36:46;100985.53;;;19.06;100.00
49377;BME280;35253;34.688;33.040;2023-04-05T07:39:12;100982.97;;;19.14;100.00
49377;BME280;35253;34.688;33.040;2023-04-05T07:41:37;100976.31;;;19.18;100.00
49377;BME280;35253;34.688;33.040;2023-04-05T07:44:03;100976.50;;;19.36;100.00
49377;BME280;35253;34.688;33.040;2023-04-05T07:46:29;100988.88;;;19.39;100.00
49377;BME280;35253;34.688;33.040;2023-04-05T07:48:55;100983.25;;;19.51;100.00
49377;BME280;35253;34.688;33.040;2023-04-05T07:51:21;100985.91;;;19.42;100.00
49377;BME280;35253;34.688;33.040;2023-04-05T07:53:46;100982.22;;;19.43;100.00
49377;BME280;35253;34.688;33.040;2023-04-05T07:56:13;100982.16;;;19.23;100.00
49377;BME280;35253;34.688;33.040;2023-04-05T07:58:39;100987.41;;;19.15;100.00
49377;BME280;35253;34.688;33.040;2023-04-05T08:01:09;100978.72;;;19.12;100.00
49377;BME280;35253;34.688;33.040;2023-04-05T08:03:36;100981.72;;;19.18;100.00
49377;BME280;35253;34.688;33.040;2023-04-05T08:06:11;100990.69;;;19.19;100.00
49377;BME280;35253;34.688;33.040;2023-04-05T08:08:37;100991.06;;;19.45;100.00
49377;BME280;35253;34.688;33.040;2023-04-05T08:11:03;101000.94;;;19.25;100.00
49377;BME280;35253;34.688;33.040;2023-04-05T08:13:29;100993.84;;;19.24;100.00
49377;BME280;35253;34.688;33.040;2023-04-05T08:15:59;100987.63;;;19.43;100.00
49377;BME280;35253;34.688;33.040;2023-04-05T08:18:28;100986.44;;;19.35;100.00
49377;BME280;35253;34.688;33.040;2023-04-05T08:20:54;100992.13;;;19.32;100.00
49377;BME280;35253;34.688;33.040;2023-04-05T08:23:20;100995.94;;;19.70;100.00
49377;BME280;35253;34.688;33.040;2023-04-05T08:25:46;100994.00;;;19.42;100.00
49377;BME280;35253;34.688;33.040;2023-04-05T08:28:11;100990.69;;;19.78;100.00
49377;BME280;35253;34.688;33.040;2023-04-05T08:30:38;101004.47;;;19.65;100.00
49377;BME280;35253;34.688;33.040;2023-04-05T08:33:04;100998.50;;;19.52;100.00
49377;BME280;35253;34.688;33.040;2023-04-05T08:35:30;100999.69;;;19.29;100.00
49377;BME280;35253;34.688;33.040;2023-04-05T08:37:56;100997.47;;;19.44;100.00
49377;BME280;35253;34.688;33.040;2023-04-05T08:45:50;100990.81;;;19.76;100.00
49377;BME280;35253;34.688;33.040;2023-04-05T08:48:16;101001.03;;;19.54;100.00
49377;BME280;35253;34.688;33.040;2023-04-05T08:50:49;101004.09;;;19.40;100.00
49377;BME280;35253;34.688;33.040;2023-04-05T08:53:16;100993.91;;;19.53;100.00
49377;BME280;35253;34.688;33.040;2023-04-05T08:55:42;101002.75;;;19.93;100.00
49377;BME280;35253;34.688;33.040;2023-04-05T08:58:12;100999.47;;;19.70;100.00
49377;BME280;35253;34.688;33.040;2023-04-05T09:00:40;101003.06;;;19.80;100.00
49377;BME280;35253;34.688;33.040;2023-04-05T09:03:07;100997.06;;;19.77;100.00
49377;BME280;35253;34.688;33.040;2023-04-05T09:05:38;101006.47;;;19.73;100.00
49377;BME280;35253;34.688;33.040;2023-04-05T09:08:05;101008.44;;;19.71;100.00
49377;BME280;35253;34.688;33.040;2023-04-05T09:10:31;101004.72;;;19.53;100.00
49377;BME280;35253;34.688;33.040;2023-04-05T09:12:58;101008.19;;;19.74;100.00
49377;BME280;35253;34.688;33.040;2023-04-05T09:15:25;100981.66;;;20.06;100.00
49377;BME280;35253;34.688;33.040;2023-04-05T09:17:53;101016.28;;;19.93;100.00
49377;BME280;35253;34.688;33.040;2023-04-05T09:20:20;100991.94;;;19.84;100.00
49377;BME280;35253;34.688;33.040;2023-04-05T09:22:46;101003.06;;;20.09;100.00
49377;BME280;35253;34.688;33.040;2023-04-05T09:25:35;101011.88;;;19.73;100.00
49377;BME280;35253;34.688;33.040;2023-04-05T09:28:08;101014.56;;;19.92;100.00
49377;BME280;35253;34.688;33.040;2023-04-05T09:30:34;101016.47;;;19.92;100.00
49377;BME280;35253;34.688;33.040;2023-04-05T09:33:02;101013.59;;;19.74;100.00
49377;BME280;35253;34.688;33.040;2023-04-05T09:35:30;101020.16;;;19.91;100.00
49377;BME280;35253;34.688;33.040;2023-04-05T09:38:00;101009.88;;;19.85;100.00
49377;BME280;35253;34.688;33.040;2023-04-05T09:40:46;101009.88;;;19.75;100.00
49377;BME280;35253;34.688;33.040;2023-04-05T09:43:14;101026.28;;;19.83;100.00
49377;BME280;35253;34.688;33.040;2023-04-05T09:45:58;101013.03;;;19.90;100.00
49377;BME280;35253;34.688;33.040;2023-04-05T09:48:49;101006.47;;;19.92;100.00
49377;BME280;35253;34.688;33.040;2023-04-05T09:51:18;101001.03;;;20.11;100.00
49377;BME280;35253;34.688;33.040;2023-04-05T09:54:03;101015.00;;;20.16;100.00
49377;BME280;35253;34.688;33.040;2023-04-05T09:56:31;101011.03;;;20.40;100.00
49377;BME280;35253;34.688;33.040;2023-04-05T09:59:02;101017.53;;;20.66;100.00
49377;BME280;35253;34.688;33.040;2023-04-05T10:01:30;101023.94;;;20.65;100.00
49377;BME280;35253;34.688;33.040;2023-04-05T10:03:57;101028.13;;;20.21;100.00
49377;BME280;35253;34.688;33.040;2023-04-05T10:06:23;101018.41;;;20.18;100.00
49377;BME280;35253;34.688;33.040;2023-04-05T10:08:58;101017.88;;;20.44;100.00
49377;BME280;35253;34.688;33.040;2023-04-05T10:11:25;101015.88;;;20.27;100.00
49377;BME280;35253;34.688;33.040;2023-04-05T10:13:50;101012.88;;;20.30;100.00
49377;BME280;35253;34.688;33.040;2023-04-05T10:16:20;101021.72;;;20.32;100.00
49377;BME280;35253;34.688;33.040;2023-04-05T10:18:48;101017.75;;;20.36;100.00
49377;BME280;35253;34.688;33.040;2023-04-05T10:21:21;101009.88;;;20.42;100.00
49377;BME280;35253;34.688;33.040;2023-04-05T10:24:39;101006.84;;;21.01;100.00
49377;BME280;35253;34.688;33.040;2023-04-05T10:29:29;101008.66;;;20.74;100.00
49377;BME280;35253;34.688;33.040;2023-04-05T10:32:10;101007.81;;;20.63;100.00
49377;BME280;35253;34.688;33.040;2023-04-05T10:35:08;101018.97;;;20.51;100.00
49377;BME280;35253;34.688;33.040;2023-04-05T10:40:15;101013.69;;;20.49;100.00
49377;BME280;35253;34.688;33.040;2023-04-05T10:42:43;101020.00;;;20.40;100.00
49377;BME280;35253;34.688;33.040;2023-04-05T10:45:16;101002.59;;;20.89;100.00
49377;BME280;35253;34.688;33.040;2023-04-05T10:47:47;100991.66;;;21.08;100.00
49377;BME280;35253;34.688;33.040;2023-04-05T10:50:21;100985.25;;;20.73;100.00
49377;BME280;35253;34.688;33.040;2023-04-05T10:52:48;100997.53;;;21.13;100.00
49377;BME280;35253;34.688;33.040;2023-04-05T10:55:15;100994.31;;;20.91;100.00
49377;BME280;35253;34.688;33.040;2023-04-05T10:57:43;101000.59;;;20.91;100.00
49377;BME280;35253;34.688;33.040;2023-04-05T11:00:10;100990.25;;;21.04;100.00
49377;BME280;35253;34.688;33.040;2023-04-05T11:02:38;101017.53;;;20.93;100.00
49377;BME280;35253;34.688;33.040;2023-04-05T11:05:04;100998.66;;;20.74;100.00
49377;BME280;35253;34.688;33.040;2023-04-05T11:07:43;101008.25;;;21.05;100.00
49377;BME280;35253;34.688;33.040;2023-04-05T11:10:16;100997.44;;;20.96;100.00
49377;BME280;35253;34.688;33.040;2023-04-05T11:18:23;100997.28;;;20.97;100.00
49377;BME280;35253;34.688;33.040;2023-04-05T11:20:51;100986.91;;;20.93;100.00
49377;BME280;35253;34.688;33.040;2023-04-05T11:23:21;100989.63;;;21.20;100.00
49377;BME280;35253;34.688;33.040;2023-04-05T11:25:52;101000.59;;;20.91;100.00
49377;BME280;35253;34.688;33.040;2023-04-05T11:28:37;100987.81;;;20.74;100.00
49377;BME280;35253;34.688;33.040;2023-04-05T11:31:17;100984.88;;;21.49;100.00
49377;BME280;35253;34.688;33.040;2023-04-05T11:36:09;100992.56;;;20.99;100.00
49377;BME280;35253;34.688;33.040;2023-04-05T11:38:35;100995.06;;;20.83;100.00
49377;BME280;35253;34.688;33.040;2023-04-05T11:41:21;100991.16;;;20.95;100.00
49377;BME280;35253;34.688;33.040;2023-04-05T11:43:50;101002.66;;;20.80;100.00
49377;BME280;35253;34.688;33.040;2023-04-05T11:46:17;100984.47;;;20.90;100.00
49377;BME280;35253;34.688;33.040;2023-04-05T11:48:49;100973.97;;;21.14;100.00
49377;BME280;35253;34.688;33.040;2023-04-05T11:51:15;100978.69;;;20.75;100.00
49377;BME280;35253;34.688;33.040;2023-04-05T11:53:45;100981.84;;;20.71;100.00
49377;BME280;35253;34.688;33.040;2023-04-05T11:56:11;100998.88;;;20.90;100.00
49377;BME280;35253;34.688;33.040;2023-04-05T11:58:40;100994.19;;;21.20;100.00
49377;BME280;35253;34.688;33.040;2023-04-05T12:01:07;100978.81;;;21.91;100.00
49377;BME280;35253;34.688;33.040;2023-04-05T12:03:34;100975.66;;;21.60;100.00
49377;BME280;35253;34.688;33.040;2023-04-05T12:06:02;100977.09;;;21.09;100.00
49377;BME280;35253;34.688;33.040;2023-04-05T12:08:41;100988.72;;;20.65;100.00
49377;BME280;35253;34.688;33.040;2023-04-05T12:11:08;100973.31;;;20.65;100.00
49377;BME280;35253;34.688;33.040;2023-04-05T12:13:35;100984.06;;;20.29;100.00
49377;BME280;35253;34.688;33.040;2023-04-05T12:16:03;100972.53;;;20.83;100.00
49377;BME280;35253;34.688;33.040;2023-04-05T12:18:31;100969.91;;;20.54;100.00
49377;BME280;35253;34.688;33.040;2023-04-05T12:20:57;100965.31;;;20.64;100.00
49377;BME280;35253;34.688;33.040;2023-04-05T12:23:24;100971.00;;;20.71;100.00
49377;BME280;35253;34.688;33.040;2023-04-05T12:25:53;100987.31;;;20.61;100.00
49377;BME280;35253;34.688;33.040;2023-04-05T12:28:19;100971.31;;;20.95;100.00
49377;BME280;35253;34.688;33.040;2023-04-05T12:30:52;100970.13;;;20.80;100.00
49377;BME280;35253;34.688;33.040;2023-04-05T12:33:29;100974.41;;;20.73;100.00
49377;BME280;35253;34.688;33.040;2023-04-05T12:35:57;100969.34;;;20.60;100.00
49377;BME280;35253;34.688;33.040;2023-04-05T12:38:26;101002.66;;;20.80;100.00
49377;BME280;35253;34.688;33.040;2023-04-05T12:40:52;100971.41;;;20.39;100.00
49377;BME280;35253;34.688;33.040;2023-04-05T12:43:19;100954.44;;;20.74;100.00
49377;BME280;35253;34.688;33.040;2023-04-05T12:45:45;100959.50;;;20.59;100.00
49377;BME280;35253;34.688;33.040;2023-04-05T12:48:13;100973.13;;;20.67;100.00
49377;BME280;35253;34.688;33.040;2023-04-05T12:50:43;100963.13;;;20.21;100.00
49377;BME280;35253;34.688;33.040;2023-04-05T12:53:30;100956.00;;;20.39;100.00
49377;BME280;35253;34.688;33.040;2023-04-05T12:55:57;100943.09;;;20.60;100.00
49377;BME280;35253;34.688;33.040;2023-04-05T12:58:33;100945.53;;;20.54;100.00
49377;BME280;35253;34.688;33.040;2023-04-05T13:00:59;100969.53;;;20.76;100.00
49377;BME280;35253;34.688;33.040;2023-04-05T13:03:25;100965.53;;;20.24;100.00